createdAt,value
2022-11-10T00:02:22.353Z,101132.72
2022-11-10T00:05:23.883Z,101133.75
2022-11-10T00:08:25.427Z,101144.59
2022-11-10T00:11:27.136Z,101141.34
2022-11-10T00:14:47.380Z,101146.97
2022-11-10T00:17:48.971Z,101152.47
2022-11-10T00:20:50.477Z,101158.84
2022-11-10T00:23:52.230Z,101161.78
2022-11-10T00:26:54.108Z,101162.75
2022-11-10T00:29:55.656Z,101161.13
2022-11-10T00:32:57.220Z,101163.03
2022-11-10T00:36:00.657Z,101165.00
2022-11-10T00:39:02.294Z,101179.44
2022-11-10T00:42:04.044Z,101171.72
2022-11-10T00:45:06.380Z,101175.41
2022-11-10T00:48:07.918Z,101169.34
2022-11-10T00:51:27.004Z,101171.22
2022-11-10T00:54:28.582Z,101172.38
2022-11-10T00:57:30.151Z,101173.41
2022-11-10T01:00:32.023Z,101176.25
2022-11-10T01:03:34.669Z,101175.38
2022-11-10T01:06:36.242Z,101186.00
2022-11-10T01:09:38.119Z,101194.09
2022-11-10T01:12:39.735Z,101201.31
2022-11-10T01:15:44.407Z,101201.38
2022-11-10T01:18:51.077Z,101208.78
2022-11-10T01:21:52.856Z,101216.91
2022-11-10T01:24:54.400Z,101229.56
2022-11-10T01:27:55.923Z,101240.25
2022-11-10T01:31:02.388Z,101236.94
2022-11-10T01:34:04.037Z,101248.50
2022-11-10T01:37:05.638Z,101247.63
2022-11-10T01:40:08.269Z,101237.09
2022-11-10T01:43:11.531Z,101238.91
2022-11-10T01:46:14.004Z,101240.78
2022-11-10T01:49:22.090Z,101243.44
2022-11-10T01:52:23.905Z,101243.53
2022-11-10T01:55:26.354Z,101254.19
2022-11-10T01:58:32.557Z,101246.97
2022-11-10T02:01:34.113Z,101250.50
2022-11-10T02:04:37.212Z,101250.50
2022-11-10T02:07:39.260Z,101256.63
2022-11-10T02:10:40.914Z,101260.16
2022-11-10T02:13:43.674Z,101262.06
2022-11-10T02:16:45.264Z,101261.19
2022-11-10T02:19:46.827Z,101270.97
2022-11-10T02:22:48.409Z,101274.59
2022-11-10T02:25:49.953Z,101274.66
2022-11-10T02:28:51.558Z,101272.97
2022-11-10T02:31:53.177Z,101288.97
2022-11-10T02:34:54.881Z,101283.00
2022-11-10T02:37:56.424Z,101283.09
2022-11-10T02:40:58.200Z,101287.59
2022-11-10T02:44:00.217Z,101287.78
2022-11-10T02:47:01.762Z,101288.97
2022-11-10T02:50:03.491Z,101298.84
2022-11-10T02:53:05.827Z,101297.19
2022-11-10T02:56:07.607Z,101290.22
2022-11-10T02:59:09.175Z,101296.47
2022-11-10T03:02:10.893Z,101297.50
2022-11-10T03:05:12.725Z,101308.13
2022-11-10T03:08:14.325Z,101327.75
2022-11-10T03:11:16.054Z,101329.63
2022-11-10T03:14:17.801Z,101332.28
2022-11-10T03:17:19.459Z,101330.56
2022-11-10T03:20:21.132Z,101340.44
2022-11-10T03:23:22.878Z,101338.78
2022-11-10T03:26:24.553Z,101351.31
2022-11-10T03:29:26.295Z,101337.25
2022-11-10T03:32:27.898Z,101349.81
2022-11-10T03:35:29.431Z,101349.91
2022-11-10T03:38:30.975Z,101345.63
2022-11-10T03:41:32.477Z,101355.47
2022-11-10T03:44:34.072Z,101365.28
2022-11-10T03:47:35.684Z,101369.84
2022-11-10T03:50:37.256Z,101371.72
2022-11-10T03:53:38.812Z,101377.13
2022-11-10T03:56:40.928Z,101376.25
2022-11-10T03:59:42.569Z,101375.38
2022-11-10T04:02:44.165Z,101381.63
2022-11-10T04:06:04.371Z,101379.84
2022-11-10T04:09:06.525Z,101383.44
2022-11-10T04:12:26.305Z,101391.56
2022-11-10T04:15:42.663Z,101393.44
2022-11-10T04:18:44.211Z,101395.25
2022-11-10T04:21:45.784Z,101405.00
2022-11-10T04:24:47.327Z,101407.75
2022-11-10T04:27:48.832Z,101414.75
2022-11-10T04:30:50.397Z,101429.84
2022-11-10T04:33:53.211Z,101438.66
2022-11-10T04:36:54.719Z,101433.53
2022-11-10T04:39:56.280Z,101446.81
2022-11-10T04:42:57.822Z,101444.28
2022-11-10T04:45:59.633Z,101451.41
2022-11-10T04:49:02.091Z,101446.22
2022-11-10T04:52:03.941Z,101446.22
2022-11-10T04:55:06.094Z,101446.31
2022-11-10T04:58:08.067Z,101450.69
2022-11-10T05:01:14.543Z,101442.72
2022-11-10T05:04:16.123Z,101434.84
2022-11-10T05:07:17.734Z,101446.47
2022-11-10T05:10:19.527Z,101443.81
2022-11-10T05:13:21.390Z,101457.09
2022-11-10T05:16:23.212Z,101462.41
2022-11-10T05:19:24.778Z,101458.88
2022-11-10T05:22:26.309Z,101468.63
2022-11-10T05:25:27.859Z,101462.53
2022-11-10T05:28:29.403Z,101467.84
2022-11-10T05:31:31.216Z,101466.16
2022-11-10T05:34:32.797Z,101474.94
2022-11-10T05:37:34.350Z,101465.28
2022-11-10T05:40:36.208Z,101462.63
2022-11-10T05:43:38.029Z,101464.31
2022-11-10T05:46:39.567Z,101469.91
2022-11-10T05:49:41.114Z,101476.94
2022-11-10T05:52:51.115Z,101500.75
2022-11-10T05:55:52.682Z,101503.41
2022-11-10T05:58:54.396Z,101513.13
2022-11-10T06:01:55.912Z,101525.47
2022-11-10T06:04:57.444Z,101520.22
2022-11-10T06:07:59.712Z,101529.84
2022-11-10T06:11:01.540Z,101525.38
2022-11-10T06:14:03.316Z,101528.91
2022-11-10T06:17:04.888Z,101543.88
2022-11-10T06:20:07.349Z,101542.72
2022-11-10T06:23:13.487Z,101558.78
2022-11-10T06:26:15.066Z,101542.00
2022-11-10T06:29:16.704Z,101551.75
2022-11-10T06:32:18.309Z,101541.56
2022-11-10T06:35:21.544Z,101546.88
2022-11-10T06:38:23.131Z,101560.25
2022-11-10T06:41:25.506Z,101563.13
2022-11-10T06:44:27.204Z,101563.25
2022-11-10T06:47:29.962Z,101576.78
2022-11-10T06:50:31.720Z,101583.09
2022-11-10T06:53:33.820Z,101589.44
2022-11-10T06:56:35.582Z,101592.19
2022-11-10T06:59:37.132Z,101593.97
2022-11-10T07:02:38.699Z,101605.53
2022-11-10T07:05:40.284Z,101613.59
2022-11-10T07:08:41.805Z,101616.28
2022-11-10T07:11:43.409Z,101632.22
2022-11-10T07:14:44.941Z,101635.75
2022-11-10T07:17:46.443Z,101654.34
2022-11-10T07:20:47.974Z,101666.88
2022-11-10T07:23:49.539Z,101674.75
2022-11-10T07:26:51.100Z,101690.63
2022-11-10T07:29:52.651Z,101688.69
2022-11-10T07:33:06.119Z,101699.25
2022-11-10T07:36:08.016Z,101713.25
2022-11-10T07:39:11.315Z,101714.88
2022-11-10T07:42:12.849Z,101718.34
2022-11-10T07:45:14.616Z,101716.41
2022-11-10T07:48:16.522Z,101711.88
2022-11-10T07:51:18.050Z,101719.66
2022-11-10T07:54:19.619Z,101723.97
2022-11-10T07:57:21.148Z,101699.03
2022-11-10T08:00:22.864Z,101703.34
2022-11-10T08:03:24.745Z,101693.50
2022-11-10T08:06:26.526Z,101696.09
2022-11-10T08:09:28.073Z,101694.28
2022-11-10T08:12:32.687Z,101709.16
2022-11-10T08:15:35.685Z,101702.72
2022-11-10T08:18:37.239Z,101715.00
2022-11-10T08:21:38.747Z,101715.84
2022-11-10T08:24:40.288Z,101728.94
2022-11-10T08:27:41.800Z,101736.78
2022-11-10T08:30:45.616Z,101733.13
2022-11-10T08:33:47.437Z,101730.41
2022-11-10T08:36:51.671Z,101740.03
2022-11-10T08:39:53.248Z,101743.38
2022-11-10T08:42:59.636Z,101741.50
2022-11-10T08:46:01.979Z,101746.81
2022-11-10T08:49:03.551Z,101749.34
2022-11-10T08:52:05.141Z,101753.72
2022-11-10T08:55:07.057Z,101752.78
2022-11-10T08:58:12.344Z,101761.47
2022-11-10T09:01:13.875Z,101748.97
2022-11-10T09:04:15.915Z,101750.50
2022-11-10T09:07:17.680Z,101749.50
2022-11-10T09:10:19.550Z,101747.47
2022-11-10T09:13:27.662Z,101745.44
2022-11-10T09:16:30.776Z,101748.72
2022-11-10T09:19:32.555Z,101745.94
2022-11-10T09:22:37.237Z,101758.06
2022-11-10T09:25:38.975Z,101769.19
2022-11-10T09:28:40.545Z,101769.63
2022-11-10T09:31:44.233Z,101765.75
2022-11-10T09:34:50.269Z,101779.50
2022-11-10T09:37:54.452Z,101778.91
2022-11-10T09:41:07.193Z,101775.69
2022-11-10T09:44:29.921Z,101798.94
2022-11-10T09:48:01.674Z,101797.41
2022-11-10T09:51:08.945Z,101806.75
2022-11-10T09:54:19.811Z,101818.09
2022-11-10T09:57:25.635Z,101808.13
2022-11-10T10:00:31.253Z,101810.44
2022-11-10T10:03:33.199Z,101804.84
2022-11-10T10:07:09.638Z,101803.75
2022-11-10T10:10:22.892Z,101813.31
2022-11-10T10:13:52.165Z,101819.34
2022-11-10T10:17:14.708Z,101835.19
2022-11-10T10:20:28.479Z,101826.22
2022-11-10T10:24:07.305Z,101834.16
2022-11-10T10:27:00.238Z,101835.88
2022-11-10T10:30:02.449Z,101845.50
2022-11-10T10:33:22.181Z,101843.53
2022-11-10T10:36:25.500Z,101846.03
2022-11-10T10:39:35.960Z,101846.56
2022-11-10T10:42:37.912Z,101848.66
2022-11-10T10:45:42.384Z,101849.63
2022-11-10T10:48:47.733Z,101847.72
2022-11-10T10:52:07.230Z,101846.91
2022-11-10T10:55:09.751Z,101848.38
2022-11-10T10:58:22.454Z,101852.41
2022-11-10T11:01:28.555Z,101846.63
2022-11-10T11:04:35.948Z,101854.03
2022-11-10T11:07:38.245Z,101846.50
2022-11-10T11:10:45.442Z,101866.66
2022-11-10T11:13:46.969Z,101860.84
2022-11-10T11:16:56.744Z,101873.75
2022-11-10T11:20:00.072Z,101876.16
2022-11-10T11:23:39.216Z,101888.47
2022-11-10T11:26:54.383Z,101892.25
2022-11-10T11:30:02.661Z,101893.28
2022-11-10T11:33:26.051Z,101900.22
2022-11-10T11:36:58.319Z,101908.94
2022-11-10T11:40:18.263Z,101907.88
2022-11-10T11:43:51.877Z,101910.00
2022-11-10T11:46:56.208Z,101910.06
2022-11-10T11:50:22.501Z,101913.19
2022-11-10T11:53:30.140Z,101912.06
2022-11-10T11:56:39.304Z,101920.44
2022-11-10T12:00:11.856Z,101921.75
2022-11-10T12:03:37.207Z,101920.41
2022-11-10T12:06:53.315Z,101917.94
2022-11-10T12:10:27.423Z,101918.22
2022-11-10T12:13:53.138Z,101925.41
2022-11-10T12:17:25.514Z,101924.53
2022-11-10T12:20:59.245Z,101932.56
2022-11-10T12:24:30.125Z,101930.81
2022-11-10T12:27:40.038Z,101941.50
2022-11-10T12:30:43.503Z,101939.88
2022-11-10T12:33:59.421Z,101949.63
2022-11-10T12:37:05.220Z,101958.41
2022-11-10T12:40:22.889Z,101955.66
2022-11-10T12:43:41.599Z,101955.56
2022-11-10T12:46:48.220Z,101957.28
2022-11-10T12:50:04.387Z,101962.56
2022-11-10T12:53:11.770Z,101970.56
2022-11-10T12:56:21.083Z,101982.09
2022-11-10T12:59:22.722Z,101988.31
2022-11-10T13:02:32.647Z,101982.03
2022-11-10T13:05:42.054Z,101994.47
2022-11-10T13:08:43.742Z,101981.97
2022-11-10T13:12:05.468Z,101986.38
2022-11-10T13:15:35.861Z,101992.59
2022-11-10T13:18:37.346Z,101984.47
2022-11-10T13:21:50.987Z,101985.16
2022-11-10T13:24:52.646Z,101981.63
2022-11-10T13:27:54.227Z,101981.50
2022-11-10T13:30:55.801Z,101980.56
2022-11-10T13:34:11.338Z,101978.66
2022-11-10T13:37:34.713Z,101986.69
2022-11-10T13:40:37.399Z,101987.63
2022-11-10T13:43:48.692Z,101986.69
2022-11-10T13:47:35.006Z,101975.22
2022-11-10T13:50:59.687Z,101976.94
2022-11-10T13:54:37.299Z,101988.59
2022-11-10T13:57:56.217Z,101974.25
2022-11-10T14:01:16.516Z,101982.28
2022-11-10T14:04:40.492Z,101983.25
2022-11-10T14:07:46.311Z,101978.66
2022-11-10T14:10:58.211Z,101970.66
2022-11-10T14:14:12.263Z,101978.56
2022-11-10T14:17:21.260Z,101979.53
2022-11-10T14:20:43.511Z,101991.09
2022-11-10T14:23:49.299Z,101991.09
2022-11-10T14:26:58.363Z,102003.44
2022-11-10T14:30:24.430Z,101996.25
2022-11-10T14:33:27.600Z,102002.56
2022-11-10T14:36:29.182Z,102011.44
2022-11-10T14:39:33.791Z,102017.72
2022-11-10T14:42:35.378Z,102016.88
2022-11-10T14:45:38.631Z,102015.16
2022-11-10T14:48:40.287Z,102014.19
2022-11-10T14:51:41.902Z,102024.13
2022-11-10T14:54:46.624Z,102032.13
2022-11-10T14:57:56.699Z,102027.66
2022-11-10T15:00:59.026Z,102032.13
2022-11-10T15:04:02.516Z,102034.81
2022-11-10T15:07:06.438Z,102032.13
2022-11-10T15:10:21.722Z,102030.22
2022-11-10T15:13:31.945Z,102038.34
2022-11-10T15:16:36.717Z,102048.19
2022-11-10T15:19:56.100Z,102053.53
2022-11-10T15:22:59.924Z,102057.94
2022-11-10T15:26:01.596Z,102073.97
2022-11-10T15:29:03.153Z,102075.78
2022-11-10T15:32:15.141Z,102082.00
2022-11-10T15:35:22.816Z,102082.00
2022-11-10T15:38:29.290Z,102086.31
2022-11-10T15:41:33.634Z,102098.53
2022-11-10T15:44:35.369Z,102092.94
2022-11-10T15:47:37.772Z,102085.66
2022-11-10T15:50:41.023Z,102095.25
2022-11-10T15:53:50.683Z,102080.91
2022-11-10T15:56:52.566Z,102062.97
2022-11-10T15:59:54.111Z,102089.72
2022-11-10T16:02:55.714Z,102101.22
2022-11-10T16:05:57.404Z,102101.97
2022-11-10T16:08:58.961Z,102099.31
2022-11-10T16:12:00.518Z,102085.81
2022-11-10T16:15:02.374Z,102075.22
2022-11-10T16:18:04.549Z,102073.41
2022-11-10T16:21:06.730Z,102085.94
2022-11-10T16:24:08.444Z,102076.94
2022-11-10T16:27:14.707Z,102079.53
2022-11-10T16:30:16.546Z,102097.41
2022-11-10T16:33:20.130Z,102106.28
2022-11-10T16:36:27.732Z,102097.41
2022-11-10T16:39:31.894Z,102100.06
2022-11-10T16:42:33.700Z,102096.63
2022-11-10T16:45:35.276Z,102096.63
2022-11-10T16:48:37.760Z,102094.88
2022-11-10T16:51:48.551Z,102106.47
2022-11-10T16:54:50.704Z,102101.09
2022-11-10T16:57:52.311Z,102103.88
2022-11-10T17:00:58.059Z,102104.72
2022-11-10T17:04:04.643Z,102118.09
2022-11-10T17:07:14.729Z,102106.56
2022-11-10T17:10:18.563Z,102108.38
2022-11-10T17:13:20.152Z,102113.78
2022-11-10T17:16:21.653Z,102125.50
2022-11-10T17:19:26.440Z,102113.97
2022-11-10T17:22:33.379Z,102115.84
2022-11-10T17:25:36.588Z,102114.25
2022-11-10T17:28:38.259Z,102113.38
2022-11-10T17:31:39.867Z,102119.59
2022-11-10T17:34:41.403Z,102111.66
2022-11-10T17:37:47.860Z,102107.25
2022-11-10T17:40:50.094Z,102116.22
2022-11-10T17:43:51.756Z,102124.25
2022-11-10T17:46:53.321Z,102128.81
2022-11-10T17:49:54.970Z,102127.09
2022-11-10T17:52:56.637Z,102130.63
2022-11-10T17:55:58.164Z,102127.09
2022-11-10T17:59:00.047Z,102134.16
2022-11-10T18:02:01.644Z,102141.22
2022-11-10T18:05:03.612Z,102138.56
2022-11-10T18:08:05.144Z,102144.78
2022-11-10T18:11:06.703Z,102140.28
2022-11-10T18:14:10.859Z,102150.97
2022-11-10T18:17:12.479Z,102152.88
2022-11-10T18:20:14.781Z,102152.88
2022-11-10T18:23:16.394Z,102148.47
2022-11-10T18:26:18.200Z,102139.53
2022-11-10T18:29:19.760Z,102135.97
2022-11-10T18:32:21.598Z,102133.31
2022-11-10T18:35:23.197Z,102131.50
2022-11-10T18:38:24.791Z,102143.06
2022-11-10T18:41:45.114Z,102135.03
2022-11-10T18:44:46.756Z,102148.41
2022-11-10T18:47:48.415Z,102154.59
2022-11-10T18:50:50.009Z,102148.41
2022-11-10T18:53:53.081Z,102139.41
2022-11-10T18:56:54.711Z,102147.50
2022-11-10T18:59:56.293Z,102162.53
2022-11-10T19:02:57.888Z,102157.28
2022-11-10T19:05:59.543Z,102155.63
2022-11-10T19:09:01.391Z,102137.84
2022-11-10T19:12:03.053Z,102137.94
2022-11-10T19:15:05.043Z,102138.06
2022-11-10T19:18:06.660Z,102132.00
2022-11-10T19:21:15.000Z,102139.34
2022-11-10T19:24:27.351Z,102143.06
2022-11-10T19:27:29.476Z,102144.09
2022-11-10T19:30:31.061Z,102156.66
2022-11-10T19:33:34.314Z,102167.38
2022-11-10T19:36:35.900Z,102169.19
2022-11-10T19:39:37.387Z,102172.81
2022-11-10T19:42:38.918Z,102171.16
2022-11-10T19:45:41.200Z,102173.06
2022-11-10T19:48:44.171Z,102176.84
2022-11-10T19:51:45.721Z,102181.50
2022-11-10T19:54:47.285Z,102189.75
2022-11-10T19:57:48.842Z,102193.53
2022-11-10T20:00:50.400Z,102198.19
2022-11-10T20:03:52.279Z,102206.47
2022-11-10T20:07:14.575Z,102208.31
2022-11-10T20:10:16.193Z,102215.56
2022-11-10T20:13:17.902Z,102206.78
2022-11-10T20:16:19.540Z,102210.47
2022-11-10T20:19:21.072Z,102213.31
2022-11-10T20:22:22.683Z,102224.97
2022-11-10T20:25:24.227Z,102221.41
2022-11-10T20:28:25.760Z,102215.22
2022-11-10T20:31:27.386Z,102223.31
2022-11-10T20:34:28.892Z,102227.78
2022-11-10T20:37:33.813Z,102217.16
2022-11-10T20:40:44.386Z,102217.41
2022-11-10T20:43:47.493Z,102212.25
2022-11-10T20:46:54.461Z,102220.34
2022-11-10T20:49:56.702Z,102221.50
2022-11-10T20:52:58.303Z,102223.50
2022-11-10T20:56:02.021Z,102233.47
2022-11-10T20:59:03.724Z,102236.28
2022-11-10T21:02:05.517Z,102234.63
2022-11-10T21:05:07.410Z,102239.19
2022-11-10T21:08:09.008Z,102261.53
2022-11-10T21:11:11.023Z,102257.13
2022-11-10T21:14:12.652Z,102261.69
2022-11-10T21:17:14.387Z,102271.59
2022-11-10T21:20:16.135Z,102262.75
2022-11-10T21:23:18.149Z,102262.75
2022-11-10T21:26:19.691Z,102266.38
2022-11-10T21:29:21.431Z,102272.84
2022-11-10T21:32:23.079Z,102277.38
2022-11-10T21:35:24.662Z,102277.38
2022-11-10T21:38:26.194Z,102282.72
2022-11-10T21:41:27.929Z,102288.91
2022-11-10T21:44:29.532Z,102297.88
2022-11-10T21:47:31.080Z,102299.69
2022-11-10T21:50:32.596Z,102293.47
2022-11-10T21:53:34.588Z,102289.00
2022-11-10T21:56:36.148Z,102295.28
2022-11-10T21:59:37.640Z,102290.09
2022-11-10T22:02:39.437Z,102297.31
2022-11-10T22:05:40.992Z,102300.06
2022-11-10T22:08:44.269Z,102295.81
2022-11-10T22:12:04.206Z,102290.63
2022-11-10T22:15:24.747Z,102297.00
2022-11-10T22:18:38.121Z,102294.47
2022-11-10T22:21:39.654Z,102300.72
2022-11-10T22:24:41.403Z,102294.63
2022-11-10T22:27:42.908Z,102292.88
2022-11-10T22:30:44.490Z,102295.78
2022-11-10T22:33:46.037Z,102286.06
2022-11-10T22:36:52.495Z,102293.16
2022-11-10T22:40:12.462Z,102298.50
2022-11-10T22:43:32.485Z,102290.63
2022-11-10T22:46:39.842Z,102295.09
2022-11-10T22:49:41.462Z,102288.09
2022-11-10T22:52:43.039Z,102281.06
2022-11-10T22:55:44.582Z,102293.63
2022-11-10T22:58:46.754Z,102295.56
2022-11-10T23:01:48.386Z,102297.44
2022-11-10T23:04:49.976Z,102305.44
2022-11-10T23:07:51.508Z,102299.22
2022-11-10T23:11:05.098Z,102304.56
2022-11-10T23:14:06.647Z,102311.78
2022-11-10T23:17:08.324Z,102306.50
2022-11-10T23:20:10.386Z,102306.59
2022-11-10T23:23:12.169Z,102310.28
2022-11-10T23:26:14.831Z,102310.41
2022-11-10T23:29:16.377Z,102323.97
2022-11-10T23:32:17.939Z,102311.69
2022-11-10T23:35:19.535Z,102316.25
2022-11-10T23:38:21.076Z,102327.94
2022-11-10T23:41:28.723Z,102333.41
2022-11-10T23:44:30.286Z,102334.41
2022-11-10T23:47:31.922Z,102326.50
2022-11-10T23:50:33.866Z,102334.59
2022-11-10T23:53:35.448Z,102346.19
2022-11-10T23:56:37.192Z,102354.28
2022-11-10T23:59:38.746Z,102355.19
